createdAt,value
2017-08-20T00:00:46.370Z,12.79
2017-08-20T00:01:34.443Z,12.80
2017-08-20T00:02:23.450Z,12.79
2017-08-20T00:03:18.684Z,12.83
2017-08-20T00:04:18.508Z,12.84
2017-08-20T00:05:13.550Z,12.89
2017-08-20T00:06:13.568Z,12.88
2017-08-20T00:07:13.602Z,12.86
2017-08-20T00:08:02.861Z,12.85
2017-08-20T00:08:51.656Z,12.82
2017-08-20T00:09:46.638Z,12.79
2017-08-20T00:10:46.772Z,12.76
2017-08-20T00:11:46.760Z,12.74
2017-08-20T00:12:41.015Z,12.76
2017-08-20T00:13:41.146Z,12.68
2017-08-20T00:14:35.884Z,12.68
2017-08-20T00:15:31.050Z,12.66
2017-08-20T00:16:32.132Z,12.68
2017-08-20T00:17:32.164Z,12.68
2017-08-20T00:18:32.306Z,12.65
2017-08-20T00:19:27.388Z,12.63
2017-08-20T00:20:21.200Z,12.66
2017-08-20T00:21:21.187Z,12.67
2017-08-20T00:22:16.385Z,12.71
2017-08-20T00:23:16.436Z,12.71
2017-08-20T00:24:10.262Z,12.67
2017-08-20T00:25:11.300Z,12.61
2017-08-20T00:26:12.527Z,12.64
2017-08-20T00:27:07.276Z,12.62
2017-08-20T00:28:01.632Z,12.58
2017-08-20T00:29:01.545Z,12.60
2017-08-20T00:29:56.454Z,12.60
2017-08-20T00:30:56.681Z,12.62
2017-08-20T00:31:50.420Z,12.62
2017-08-20T00:32:50.826Z,12.62
2017-08-20T00:33:45.489Z,12.63
2017-08-20T00:34:40.835Z,12.63
2017-08-20T00:35:40.724Z,12.67
2017-08-20T00:36:35.918Z,12.64
2017-08-20T00:37:30.828Z,12.62
2017-08-20T00:38:31.354Z,12.59
2017-08-20T00:39:26.030Z,12.58
2017-08-20T00:40:21.058Z,12.60
2017-08-20T00:41:21.829Z,12.57
2017-08-20T00:42:22.359Z,12.57
2017-08-20T00:43:22.090Z,12.52
2017-08-20T00:44:17.179Z,12.48
2017-08-20T00:45:11.166Z,12.44
2017-08-20T00:46:11.180Z,12.46
2017-08-20T00:47:06.135Z,12.40
2017-08-20T00:48:06.294Z,12.40
2017-08-20T00:49:00.268Z,12.37
2017-08-20T00:50:01.339Z,12.38
2017-08-20T00:51:02.288Z,12.38
2017-08-20T00:51:57.406Z,12.38
2017-08-20T00:52:51.417Z,12.42
2017-08-20T00:53:51.499Z,12.46
2017-08-20T00:54:45.510Z,12.47
2017-08-20T00:55:46.499Z,12.40
2017-08-20T00:56:40.595Z,12.42
2017-08-20T00:57:40.606Z,12.46
2017-08-20T00:58:40.624Z,12.46
2017-08-20T00:59:35.585Z,12.46
2017-08-20T01:00:29.725Z,12.44
2017-08-20T01:01:17.706Z,12.45
2017-08-20T01:02:12.683Z,12.42
2017-08-20T01:03:00.810Z,12.40
2017-08-20T01:04:01.722Z,12.42
2017-08-20T01:04:55.827Z,12.36
2017-08-20T01:05:49.851Z,12.34
2017-08-20T01:06:37.875Z,12.32
2017-08-20T01:07:26.969Z,12.31
2017-08-20T01:08:15.079Z,12.29
2017-08-20T01:09:04.071Z,12.24
2017-08-20T01:10:04.123Z,12.20
2017-08-20T01:11:05.107Z,12.26
2017-08-20T01:12:05.135Z,12.28
2017-08-20T01:13:05.226Z,12.29
2017-08-20T01:14:05.217Z,12.28
2017-08-20T01:15:05.349Z,12.26
2017-08-20T01:15:59.305Z,12.20
2017-08-20T01:16:59.302Z,12.20
2017-08-20T01:17:59.387Z,12.24
2017-08-20T01:18:54.385Z,12.25
2017-08-20T01:19:48.442Z,12.27
2017-08-20T01:20:48.241Z,12.30
2017-08-20T01:21:43.331Z,12.26
2017-08-20T01:22:43.599Z,12.26
2017-08-20T01:23:37.627Z,12.18
2017-08-20T01:24:37.355Z,12.21
2017-08-20T01:25:32.378Z,12.21
2017-08-20T01:26:27.455Z,12.20
2017-08-20T01:27:27.458Z,12.20
2017-08-20T01:28:22.818Z,12.12
2017-08-20T01:29:17.727Z,12.12
2017-08-20T01:30:18.813Z,12.13
2017-08-20T01:31:18.671Z,12.12
2017-08-20T01:32:18.723Z,12.12
2017-08-20T01:33:13.933Z,12.07
2017-08-20T01:34:13.842Z,12.12
2017-08-20T01:35:13.786Z,12.14
2017-08-20T01:36:07.875Z,12.16
2017-08-20T01:37:08.961Z,12.16
2017-08-20T01:38:09.173Z,12.17
2017-08-20T01:39:08.905Z,12.21
2017-08-20T01:40:03.952Z,12.25
2017-08-20T01:40:58.089Z,12.24
2017-08-20T01:41:58.947Z,12.27
2017-08-20T01:42:59.279Z,12.26
2017-08-20T01:43:54.117Z,12.26
2017-08-20T01:44:54.289Z,12.27
2017-08-20T01:45:54.051Z,12.32
2017-08-20T01:47:01.286Z,12.30
2017-08-20T01:48:01.382Z,12.26
2017-08-20T01:49:01.513Z,12.27
2017-08-20T01:49:55.373Z,12.24
2017-08-20T01:50:55.320Z,12.20
2017-08-20T01:51:50.593Z,12.17
2017-08-20T01:52:50.504Z,12.15
2017-08-20T01:53:50.333Z,12.17
2017-08-20T01:54:50.424Z,12.20
2017-08-20T01:55:44.407Z,12.19
2017-08-20T01:56:44.455Z,12.15
2017-08-20T01:57:39.416Z,12.14
2017-08-20T01:58:34.748Z,12.11
2017-08-20T01:59:35.586Z,12.11
2017-08-20T02:00:35.997Z,12.14
2017-08-20T02:01:35.569Z,12.10
2017-08-20T02:02:30.842Z,12.07
2017-08-20T02:03:24.884Z,12.05
2017-08-20T02:04:24.863Z,12.04
2017-08-20T02:05:19.967Z,11.98
2017-08-20T02:06:20.071Z,11.99
2017-08-20T02:07:14.021Z,12.00
2017-08-20T02:08:14.121Z,12.02
2017-08-20T02:09:08.925Z,12.06
2017-08-20T02:10:04.104Z,12.08
2017-08-20T02:11:03.932Z,12.05
2017-08-20T02:11:59.239Z,12.05
2017-08-20T02:12:54.197Z,12.04
2017-08-20T02:13:55.253Z,12.06
2017-08-20T02:14:56.249Z,12.06
2017-08-20T02:15:51.141Z,12.04
2017-08-20T02:16:45.153Z,12.03
2017-08-20T02:17:45.385Z,12.02
2017-08-20T02:18:45.536Z,12.02
2017-08-20T02:19:40.277Z,12.10
2017-08-20T02:20:34.521Z,12.13
2017-08-20T02:21:35.555Z,12.20
2017-08-20T02:22:35.360Z,12.29
2017-08-20T02:23:30.609Z,12.31
2017-08-20T02:24:30.604Z,12.34
2017-08-20T02:25:24.715Z,12.39
2017-08-20T02:26:24.416Z,12.43
2017-08-20T02:27:19.506Z,12.47
2017-08-20T02:28:14.791Z,12.47
2017-08-20T02:29:14.568Z,12.50
2017-08-20T02:30:09.817Z,12.50
2017-08-20T02:31:04.595Z,12.52
2017-08-20T02:32:04.690Z,12.54
2017-08-20T02:32:59.988Z,12.50
2017-08-20T02:33:54.704Z,12.54
2017-08-20T02:34:55.861Z,12.59
2017-08-20T02:35:51.122Z,12.61
2017-08-20T02:36:45.140Z,12.64
2017-08-20T02:37:46.029Z,12.64
2017-08-20T02:38:52.061Z,12.62
2017-08-20T02:39:46.065Z,12.64
2017-08-20T02:40:45.993Z,12.65
2017-08-20T02:41:46.196Z,12.66
2017-08-20T02:42:41.184Z,12.66
2017-08-20T02:43:41.345Z,12.66
2017-08-20T02:44:36.404Z,12.70
2017-08-20T02:45:31.158Z,12.70
2017-08-20T02:46:31.224Z,12.73
2017-08-20T02:47:25.381Z,12.71
2017-08-20T02:48:19.544Z,12.70
2017-08-20T02:49:20.489Z,12.75
2017-08-20T02:50:14.269Z,12.76
2017-08-20T02:51:03.608Z,12.78
2017-08-20T02:51:51.673Z,12.78
2017-08-20T02:52:40.626Z,12.76
2017-08-20T02:53:29.710Z,12.76
2017-08-20T02:54:17.480Z,12.72
2017-08-20T02:55:06.526Z,12.71
2017-08-20T02:55:54.782Z,12.72
2017-08-20T02:56:42.747Z,12.70
2017-08-20T02:57:31.795Z,12.70
2017-08-20T02:58:20.932Z,12.68
2017-08-20T02:59:09.966Z,12.70
2017-08-20T02:59:58.046Z,12.71
2017-08-20T03:00:45.965Z,12.71
2017-08-20T03:01:35.117Z,12.70
2017-08-20T03:02:23.113Z,12.70
2017-08-20T03:03:17.201Z,12.69
2017-08-20T03:04:06.106Z,12.68
2017-08-20T03:04:54.271Z,12.68
2017-08-20T03:05:42.074Z,12.68
2017-08-20T03:06:31.113Z,12.70
2017-08-20T03:07:26.462Z,12.70
2017-08-20T03:08:26.489Z,12.68
2017-08-20T03:09:21.550Z,12.68
2017-08-20T03:10:10.468Z,12.70
2017-08-20T03:10:59.497Z,12.70
2017-08-20T03:11:53.276Z,12.69
2017-08-20T03:12:42.451Z,12.71
2017-08-20T03:13:37.641Z,12.66
2017-08-20T03:14:25.502Z,12.72
2017-08-20T03:15:13.546Z,12.72
2017-08-20T03:16:01.526Z,12.74
2017-08-20T03:16:50.627Z,12.71
2017-08-20T03:17:39.700Z,12.74
2017-08-20T03:18:28.919Z,12.70
2017-08-20T03:19:16.830Z,12.72
2017-08-20T03:20:10.727Z,12.72
2017-08-20T03:21:04.896Z,12.72
2017-08-20T03:22:06.142Z,12.72
2017-08-20T03:23:00.110Z,12.76
2017-08-20T03:23:54.054Z,12.76
2017-08-20T03:24:48.070Z,12.74
2017-08-20T03:25:48.032Z,12.73
2017-08-20T03:26:42.129Z,12.72
2017-08-20T03:27:36.208Z,12.74
2017-08-20T03:28:37.307Z,12.72
2017-08-20T03:29:26.338Z,12.75
2017-08-20T03:30:14.368Z,12.74
2017-08-20T03:31:14.349Z,12.75
2017-08-20T03:32:08.333Z,12.77
2017-08-20T03:33:14.508Z,12.73
2017-08-20T03:34:09.502Z,12.74
2017-08-20T03:35:04.288Z,12.77
2017-08-20T03:35:58.429Z,12.76
2017-08-20T03:36:52.553Z,12.75
2017-08-20T03:37:47.562Z,12.74
2017-08-20T03:38:41.636Z,12.74
2017-08-20T03:39:36.523Z,12.76
2017-08-20T03:40:24.532Z,12.78
2017-08-20T03:41:18.652Z,12.78
2017-08-20T03:42:18.614Z,12.77
2017-08-20T03:43:13.937Z,12.73
2017-08-20T03:44:08.940Z,12.81
2017-08-20T03:45:03.930Z,12.83
2017-08-20T03:46:05.041Z,12.82
2017-08-20T03:46:53.004Z,12.78
2017-08-20T03:47:40.997Z,12.79
2017-08-20T03:48:35.265Z,12.74
2017-08-20T03:49:35.072Z,12.80
2017-08-20T03:50:30.185Z,12.78
2017-08-20T03:51:30.194Z,12.76
2017-08-20T03:52:25.243Z,12.73
2017-08-20T03:53:20.267Z,12.72
2017-08-20T03:54:14.218Z,12.74
2017-08-20T03:55:08.304Z,12.70
2017-08-20T03:56:03.302Z,12.72
2017-08-20T03:56:52.357Z,12.70
2017-08-20T03:57:46.507Z,12.68
2017-08-20T03:58:35.555Z,12.71
2017-08-20T03:59:29.493Z,12.72
2017-08-20T04:00:23.540Z,12.71
2017-08-20T04:01:23.598Z,12.71
2017-08-20T04:02:12.626Z,12.72
2017-08-20T04:03:01.734Z,12.74
2017-08-20T04:03:50.700Z,12.71
2017-08-20T04:04:38.766Z,12.71
2017-08-20T04:05:38.764Z,12.71
2017-08-20T04:06:32.822Z,12.72
2017-08-20T04:07:26.825Z,12.74
2017-08-20T04:08:26.853Z,12.74
2017-08-20T04:09:20.978Z,12.72
2017-08-20T04:10:09.942Z,12.74
2017-08-20T04:11:11.021Z,12.72
2017-08-20T04:12:05.074Z,12.71
2017-08-20T04:13:05.205Z,12.68
2017-08-20T04:14:00.292Z,12.72
2017-08-20T04:15:00.140Z,12.72
2017-08-20T04:16:01.195Z,12.73
2017-08-20T04:17:02.206Z,12.71
2017-08-20T04:17:56.201Z,12.70
2017-08-20T04:18:50.271Z,12.72
2017-08-20T04:19:50.541Z,12.72
2017-08-20T04:20:39.355Z,12.72
2017-08-20T04:21:27.401Z,12.70
2017-08-20T04:22:33.452Z,12.75
2017-08-20T04:23:28.477Z,12.71
2017-08-20T04:24:23.521Z,12.72
2017-08-20T04:25:23.510Z,12.74
2017-08-20T04:26:17.632Z,12.75
2017-08-20T04:27:11.569Z,12.74
2017-08-20T04:28:06.752Z,12.73
2017-08-20T04:29:06.715Z,12.74
2017-08-20T04:30:01.736Z,12.72
2017-08-20T04:30:50.955Z,12.76
2017-08-20T04:31:38.785Z,12.76
2017-08-20T04:32:32.838Z,12.74
2017-08-20T04:33:20.887Z,12.76
2017-08-20T04:34:14.986Z,12.79
2017-08-20T04:35:14.959Z,12.80
2017-08-20T04:36:10.044Z,12.83
2017-08-20T04:37:04.982Z,12.82
2017-08-20T04:38:05.171Z,12.84
2017-08-20T04:39:00.067Z,12.81
2017-08-20T04:39:54.120Z,12.80
2017-08-20T04:40:48.169Z,12.82
2017-08-20T04:41:43.262Z,12.83
2017-08-20T04:42:32.249Z,12.78
2017-08-20T04:43:26.308Z,12.80
2017-08-20T04:44:27.367Z,12.80
2017-08-20T04:45:21.411Z,12.82
2017-08-20T04:46:15.430Z,12.82
2017-08-20T04:47:15.552Z,12.84
2017-08-20T04:48:10.458Z,12.90
2017-08-20T04:49:04.496Z,12.90
2017-08-20T04:50:04.545Z,12.84
2017-08-20T04:50:58.536Z,12.90
2017-08-20T04:51:46.603Z,12.83
2017-08-20T04:52:40.651Z,12.83
2017-08-20T04:53:40.684Z,12.88
2017-08-20T04:54:29.755Z,12.83
2017-08-20T04:55:29.773Z,12.84
2017-08-20T04:56:29.779Z,12.92
2017-08-20T04:57:29.943Z,12.88
2017-08-20T04:58:29.852Z,12.87
2017-08-20T04:59:29.903Z,12.84
2017-08-20T05:00:24.850Z,12.92
2017-08-20T05:01:24.980Z,12.80
2017-08-20T05:02:18.938Z,12.89
2017-08-20T05:03:08.043Z,12.88
2017-08-20T05:04:02.129Z,12.90
2017-08-20T05:04:51.160Z,12.91
2017-08-20T05:05:45.148Z,12.88
2017-08-20T05:06:34.184Z,12.88
2017-08-20T05:07:28.204Z,12.93
2017-08-20T05:08:22.230Z,12.85
2017-08-20T05:09:17.286Z,12.92
2017-08-20T05:10:17.414Z,12.91
2017-08-20T05:11:12.411Z,12.94
2017-08-20T05:12:06.415Z,12.98
2017-08-20T05:13:06.509Z,12.94
2017-08-20T05:13:55.408Z,12.96
2017-08-20T05:14:44.542Z,13.01
2017-08-20T05:15:44.605Z,13.00
2017-08-20T05:16:32.520Z,13.06
2017-08-20T05:17:26.611Z,13.09
2017-08-20T05:18:26.670Z,13.05
2017-08-20T05:19:20.714Z,13.02
2017-08-20T05:20:14.734Z,13.05
2017-08-20T05:21:03.541Z,13.05
2017-08-20T05:21:57.571Z,13.06
2017-08-20T05:22:51.647Z,13.14
2017-08-20T05:23:46.737Z,13.11
2017-08-20T05:24:35.784Z,13.12
2017-08-20T05:25:23.848Z,13.15
2017-08-20T05:26:12.818Z,13.06
2017-08-20T05:27:12.843Z,13.10
2017-08-20T05:28:12.881Z,13.14
2017-08-20T05:29:06.983Z,13.18
2017-08-20T05:30:06.958Z,13.21
2017-08-20T05:31:00.997Z,13.17
2017-08-20T05:32:01.217Z,13.22
2017-08-20T05:32:56.062Z,13.22
2017-08-20T05:33:56.397Z,13.26
2017-08-20T05:34:56.293Z,13.26
2017-08-20T05:35:51.308Z,13.28
2017-08-20T05:36:46.506Z,13.26
2017-08-20T05:37:41.302Z,13.36
2017-08-20T05:38:41.283Z,13.35
2017-08-20T05:39:35.657Z,13.36
2017-08-20T05:40:24.617Z,13.50
2017-08-20T05:41:24.691Z,13.50
2017-08-20T05:42:19.588Z,13.60
2017-08-20T05:43:14.698Z,13.58
2017-08-20T05:44:08.808Z,13.56
2017-08-20T05:45:03.777Z,13.56
2017-08-20T05:46:04.977Z,13.56
2017-08-20T05:46:58.857Z,13.58
2017-08-20T05:47:47.037Z,13.62
2017-08-20T05:48:46.946Z,13.55
2017-08-20T05:49:40.988Z,13.56
2017-08-20T05:50:36.081Z,13.60
2017-08-20T05:51:30.088Z,13.58
2017-08-20T05:52:25.114Z,13.63
2017-08-20T05:53:25.304Z,13.64
2017-08-20T05:54:14.209Z,13.58
2017-08-20T05:55:08.306Z,13.61
2017-08-20T05:56:08.321Z,13.58
2017-08-20T05:57:03.330Z,13.64
2017-08-20T05:57:58.336Z,13.60
2017-08-20T05:58:52.395Z,13.71
2017-08-20T05:59:52.507Z,13.66
2017-08-20T06:00:41.515Z,13.68
2017-08-20T06:01:29.533Z,13.72
2017-08-20T06:02:23.556Z,13.68
2017-08-20T06:03:17.620Z,13.69
2017-08-20T06:04:12.704Z,13.65
2017-08-20T06:05:13.761Z,13.64
2017-08-20T06:06:14.768Z,13.68
2017-08-20T06:07:03.792Z,13.68
2017-08-20T06:07:52.817Z,13.72
2017-08-20T06:08:47.866Z,13.74
2017-08-20T06:09:41.904Z,13.80
2017-08-20T06:10:41.870Z,13.90
2017-08-20T06:11:31.005Z,13.96
2017-08-20T06:12:25.045Z,13.99
2017-08-20T06:13:13.044Z,14.10
2017-08-20T06:14:01.126Z,14.17
2017-08-20T06:14:56.209Z,14.16
2017-08-20T06:15:51.203Z,14.16
2017-08-20T06:16:40.121Z,14.18
2017-08-20T06:17:34.257Z,14.21
2017-08-20T06:18:28.290Z,14.22
2017-08-20T06:19:22.337Z,14.10
2017-08-20T06:20:16.640Z,14.16
2017-08-20T06:21:10.396Z,14.04
2017-08-20T06:22:04.235Z,14.07
2017-08-20T06:22:53.488Z,14.04
2017-08-20T06:23:41.521Z,14.18
2017-08-20T06:24:35.582Z,14.13
2017-08-20T06:25:36.747Z,14.13
2017-08-20T06:26:36.765Z,14.16
2017-08-20T06:27:31.798Z,14.18
2017-08-20T06:28:31.754Z,14.18
2017-08-20T06:29:31.847Z,14.13
2017-08-20T06:30:25.828Z,14.08
2017-08-20T06:31:19.944Z,14.15
2017-08-20T06:32:08.957Z,14.12
2017-08-20T06:32:56.949Z,14.16
2017-08-20T06:33:46.112Z,14.20
2017-08-20T06:34:41.041Z,14.11
2017-08-20T06:35:35.122Z,14.10
2017-08-20T06:36:23.227Z,14.14
2017-08-20T06:37:18.243Z,14.19
2017-08-20T06:38:12.185Z,14.26
2017-08-20T06:39:07.231Z,14.30
2017-08-20T06:40:02.366Z,14.30
2017-08-20T06:40:57.320Z,14.39
2017-08-20T06:41:57.536Z,14.34
2017-08-20T06:42:57.461Z,14.34
2017-08-20T06:43:52.434Z,14.32
2017-08-20T06:44:47.515Z,14.41
2017-08-20T06:45:42.599Z,14.48
2017-08-20T06:46:36.632Z,14.69
2017-08-20T06:47:36.709Z,14.79
2017-08-20T06:48:36.728Z,14.87
2017-08-20T06:49:30.637Z,14.76
2017-08-20T06:50:24.791Z,14.64
2017-08-20T06:51:19.822Z,14.53
2017-08-20T06:52:13.894Z,14.42
2017-08-20T06:53:07.950Z,14.34
2017-08-20T06:54:07.823Z,14.37
2017-08-20T06:55:01.942Z,14.25
2017-08-20T06:56:02.049Z,14.32
2017-08-20T06:56:57.062Z,14.58
2017-08-20T06:57:57.072Z,15.28
2017-08-20T06:58:52.201Z,15.75
2017-08-20T06:59:46.187Z,16.13
2017-08-20T07:00:52.219Z,16.44
2017-08-20T07:01:46.212Z,16.28
2017-08-20T07:02:40.253Z,16.00
2017-08-20T07:03:29.415Z,15.96
2017-08-20T07:04:23.403Z,15.59
2017-08-20T07:05:29.364Z,15.38
2017-08-20T07:06:17.369Z,15.33
2017-08-20T07:07:18.476Z,15.37
2017-08-20T07:08:12.558Z,15.45
2017-08-20T07:09:12.511Z,15.86
2017-08-20T07:10:12.735Z,16.18
2017-08-20T07:11:07.628Z,16.30
2017-08-20T07:11:55.692Z,16.58
2017-08-20T07:12:55.783Z,16.66
2017-08-20T07:13:50.806Z,16.56
2017-08-20T07:14:50.880Z,16.64
2017-08-20T07:15:46.146Z,16.90
2017-08-20T07:16:39.948Z,17.24
2017-08-20T07:17:34.971Z,17.62
2017-08-20T07:18:35.955Z,17.96
2017-08-20T07:19:31.116Z,18.14
2017-08-20T07:20:26.142Z,18.42
2017-08-20T07:21:20.220Z,18.32
2017-08-20T07:22:21.223Z,18.18
2017-08-20T07:23:21.322Z,18.36
2017-08-20T07:24:10.322Z,18.66
2017-08-20T07:25:10.313Z,18.98
2017-08-20T07:25:59.354Z,19.45
2017-08-20T07:26:53.413Z,19.92
2017-08-20T07:27:53.492Z,20.06
2017-08-20T07:28:47.666Z,19.74
2017-08-20T07:29:47.636Z,19.53
2017-08-20T07:30:47.580Z,19.56
2017-08-20T07:31:42.706Z,19.38
2017-08-20T07:32:36.715Z,19.40
2017-08-20T07:33:31.753Z,19.09
2017-08-20T07:34:20.899Z,18.85
2017-08-20T07:35:15.938Z,18.83
2017-08-20T07:36:15.955Z,19.09
2017-08-20T07:37:10.962Z,19.15
2017-08-20T07:38:00.081Z,19.58
2017-08-20T07:38:54.092Z,19.70
2017-08-20T07:39:55.103Z,18.78
2017-08-20T07:40:56.239Z,17.46
2017-08-20T07:41:50.264Z,17.41
2017-08-20T07:42:44.330Z,16.77
2017-08-20T07:43:39.444Z,15.74
2017-08-20T07:44:28.421Z,15.78
2017-08-20T07:45:23.417Z,16.46
2017-08-20T07:46:17.468Z,16.30
2017-08-20T07:47:12.529Z,15.80
2017-08-20T07:48:13.652Z,15.32
2017-08-20T07:49:07.740Z,14.73
2017-08-20T07:50:01.601Z,14.46
2017-08-20T07:50:56.814Z,14.24
2017-08-20T07:51:50.810Z,14.03
2017-08-20T07:52:44.823Z,14.09
2017-08-20T07:53:32.875Z,14.56
2017-08-20T07:54:21.941Z,15.36
2017-08-20T07:55:16.009Z,16.00
2017-08-20T07:56:11.128Z,15.56
2017-08-20T07:57:06.137Z,16.02
2017-08-20T07:57:55.135Z,16.36
2017-08-20T07:58:49.174Z,16.21
2017-08-20T07:59:44.291Z,16.10
2017-08-20T08:00:39.360Z,15.83
2017-08-20T08:01:40.394Z,15.38
2017-08-20T08:02:35.428Z,15.21
2017-08-20T08:03:30.589Z,15.28
2017-08-20T08:04:24.448Z,14.82
2017-08-20T08:05:19.612Z,14.42
2017-08-20T08:06:13.632Z,14.17
2017-08-20T08:07:13.653Z,14.22
2017-08-20T08:08:01.723Z,14.59
2017-08-20T08:08:55.737Z,14.93
2017-08-20T08:09:55.810Z,15.25
2017-08-20T08:10:51.004Z,15.90
2017-08-20T08:11:44.991Z,16.40
2017-08-20T08:12:39.948Z,16.96
2017-08-20T08:13:40.002Z,17.80
2017-08-20T08:14:40.099Z,18.58
2017-08-20T08:15:29.148Z,18.68
2017-08-20T08:16:23.203Z,18.95
2017-08-20T08:17:11.305Z,19.18
2017-08-20T08:18:06.296Z,19.46
2017-08-20T08:18:55.446Z,19.58
2017-08-20T08:19:50.394Z,20.34
2017-08-20T08:20:39.460Z,20.46
2017-08-20T08:21:34.550Z,20.14
2017-08-20T08:22:28.560Z,19.71
2017-08-20T08:23:22.621Z,19.15
2017-08-20T08:24:17.740Z,18.81
2017-08-20T08:25:17.727Z,18.78
2017-08-20T08:26:06.816Z,18.76
2017-08-20T08:26:55.872Z,17.89
2017-08-20T08:27:49.978Z,17.98
2017-08-20T08:28:49.986Z,17.81
2017-08-20T08:29:38.050Z,17.78
2017-08-20T08:30:33.118Z,19.05
2017-08-20T08:31:28.137Z,20.28
2017-08-20T08:32:22.191Z,20.86
2017-08-20T08:33:16.306Z,21.50
2017-08-20T08:34:10.333Z,21.42
2017-08-20T08:35:04.334Z,21.60
2017-08-20T08:36:04.398Z,21.65
2017-08-20T08:36:59.422Z,21.47
2017-08-20T08:37:59.499Z,21.66
2017-08-20T08:38:54.615Z,22.30
2017-08-20T08:39:48.623Z,22.52
2017-08-20T08:40:43.677Z,22.27
2017-08-20T08:41:38.755Z,22.26
2017-08-20T08:42:32.816Z,22.16
2017-08-20T08:43:21.805Z,22.24
2017-08-20T08:44:10.024Z,22.26
2017-08-20T08:44:57.962Z,22.21
2017-08-20T08:45:58.070Z,22.36
2017-08-20T08:46:47.101Z,22.23
2017-08-20T08:47:47.154Z,21.72
2017-08-20T08:48:41.178Z,21.66
2017-08-20T08:49:35.318Z,21.46
2017-08-20T08:50:29.347Z,20.78
2017-08-20T08:51:29.384Z,20.38
2017-08-20T08:52:23.383Z,20.12
2017-08-20T08:53:17.504Z,20.24
2017-08-20T08:54:12.567Z,20.63
2017-08-20T08:55:00.583Z,20.86
2017-08-20T08:55:55.625Z,22.28
2017-08-20T08:56:55.763Z,22.74
2017-08-20T08:57:49.762Z,22.96
2017-08-20T08:58:43.807Z,22.92
2017-08-20T08:59:37.890Z,23.29
2017-08-20T09:00:31.929Z,23.26
2017-08-20T09:01:21.005Z,23.41
2017-08-20T09:02:15.124Z,23.49
2017-08-20T09:03:15.179Z,23.08
2017-08-20T09:04:09.208Z,22.38
2017-08-20T09:05:09.219Z,21.82
2017-08-20T09:06:03.245Z,20.86
2017-08-20T09:07:04.314Z,20.14
2017-08-20T09:07:58.361Z,19.42
2017-08-20T09:08:52.424Z,18.71
2017-08-20T09:09:46.541Z,18.42
2017-08-20T09:10:40.646Z,17.96
2017-08-20T09:11:34.643Z,18.64
2017-08-20T09:12:23.656Z,19.28
2017-08-20T09:13:11.816Z,19.52
2017-08-20T09:14:05.774Z,19.18
2017-08-20T09:14:59.832Z,19.68
2017-08-20T09:15:47.940Z,19.84
2017-08-20T09:16:47.976Z,20.07
2017-08-20T09:17:41.985Z,19.84
2017-08-20T09:18:36.086Z,19.76
2017-08-20T09:19:30.176Z,20.16
2017-08-20T09:20:30.177Z,20.84
2017-08-20T09:21:25.258Z,21.54
2017-08-20T09:22:14.242Z,21.92
2017-08-20T09:23:09.345Z,21.85
2017-08-20T09:24:03.418Z,21.42
2017-08-20T09:24:58.496Z,20.79
2017-08-20T09:25:46.511Z,20.82
2017-08-20T09:26:41.688Z,20.95
2017-08-20T09:27:41.575Z,20.59
2017-08-20T09:28:30.710Z,20.53
2017-08-20T09:29:24.662Z,20.84
2017-08-20T09:30:13.789Z,21.31
2017-08-20T09:31:07.849Z,20.96
2017-08-20T09:31:56.963Z,21.06
2017-08-20T09:32:50.997Z,21.38
2017-08-20T09:33:51.005Z,21.92
2017-08-20T09:34:40.103Z,21.84
2017-08-20T09:35:34.168Z,21.71
2017-08-20T09:36:34.166Z,21.86
2017-08-20T09:37:34.240Z,21.62
2017-08-20T09:38:28.256Z,21.08
2017-08-20T09:39:23.365Z,20.48
2017-08-20T09:40:11.358Z,20.32
2017-08-20T09:41:05.480Z,20.75
2017-08-20T09:42:00.476Z,21.18
2017-08-20T09:42:48.570Z,21.28
2017-08-20T09:43:49.608Z,20.80
2017-08-20T09:44:50.729Z,20.12
2017-08-20T09:45:44.722Z,19.74
2017-08-20T09:46:44.779Z,19.58
2017-08-20T09:47:39.849Z,19.37
2017-08-20T09:48:33.935Z,19.25
2017-08-20T09:49:27.990Z,19.09
2017-08-20T09:50:22.055Z,18.76
2017-08-20T09:51:16.103Z,18.70
2017-08-20T09:52:10.080Z,18.82
2017-08-20T09:52:58.229Z,18.55
2017-08-20T09:53:58.241Z,18.06
2017-08-20T09:54:46.341Z,17.77
2017-08-20T09:55:35.378Z,17.92
2017-08-20T09:56:30.374Z,18.80
2017-08-20T09:57:25.462Z,19.49
2017-08-20T09:58:14.602Z,19.91
2017-08-20T09:59:09.653Z,20.86
2017-08-20T09:59:58.678Z,21.34
2017-08-20T10:00:53.686Z,21.44
2017-08-20T10:01:47.713Z,21.66
2017-08-20T10:02:36.801Z,21.46
2017-08-20T10:03:25.771Z,21.10
2017-08-20T10:04:13.980Z,20.99
2017-08-20T10:05:07.983Z,20.61
2017-08-20T10:06:03.089Z,20.60
2017-08-20T10:06:58.046Z,21.03
2017-08-20T10:07:52.163Z,21.53
2017-08-20T10:08:52.210Z,22.27
2017-08-20T10:09:41.269Z,22.52
2017-08-20T10:10:35.318Z,22.42
2017-08-20T10:11:30.318Z,21.78
2017-08-20T10:12:25.358Z,21.30
2017-08-20T10:13:19.529Z,21.06
2017-08-20T10:14:08.524Z,20.75
2017-08-20T10:15:03.735Z,20.41
2017-08-20T10:16:03.670Z,19.95
2017-08-20T10:16:58.724Z,19.60
2017-08-20T10:17:53.804Z,19.40
2017-08-20T10:18:47.739Z,19.29
2017-08-20T10:19:47.840Z,19.25
2017-08-20T10:20:41.925Z,19.21
2017-08-20T10:21:42.962Z,18.94
2017-08-20T10:22:37.044Z,18.87
2017-08-20T10:23:31.036Z,18.73
2017-08-20T10:24:31.022Z,18.69
2017-08-20T10:25:20.118Z,18.68
2017-08-20T10:26:09.196Z,18.40
2017-08-20T10:26:57.209Z,18.52
2017-08-20T10:27:52.312Z,19.22
2017-08-20T10:28:52.391Z,18.33
2017-08-20T10:29:41.400Z,17.58
2017-08-20T10:30:41.485Z,17.10
2017-08-20T10:31:41.645Z,16.88
2017-08-20T10:32:41.586Z,16.00
2017-08-20T10:33:36.696Z,14.88
2017-08-20T10:34:25.731Z,14.58
2017-08-20T10:35:20.761Z,14.40
2017-08-20T10:36:09.820Z,14.28
2017-08-20T10:37:03.751Z,14.34
2017-08-20T10:37:52.914Z,14.26
2017-08-20T10:38:47.988Z,14.37
2017-08-20T10:39:41.962Z,14.42
2017-08-20T10:40:43.009Z,14.92
2017-08-20T10:41:43.127Z,15.23
2017-08-20T10:42:38.188Z,15.48
2017-08-20T10:43:27.137Z,14.91
2017-08-20T10:44:27.161Z,15.06
2017-08-20T10:45:27.257Z,15.32
2017-08-20T10:46:21.263Z,15.92
2017-08-20T10:47:10.310Z,15.81
2017-08-20T10:47:59.365Z,16.25
2017-08-20T10:48:48.464Z,16.28
2017-08-20T10:49:42.468Z,16.48
2017-08-20T10:50:36.550Z,17.74
2017-08-20T10:51:30.587Z,17.64
2017-08-20T10:52:25.717Z,17.96
2017-08-20T10:53:26.745Z,18.34
2017-08-20T10:54:15.784Z,18.00
2017-08-20T10:55:09.864Z,17.96
2017-08-20T10:56:03.845Z,17.80
2017-08-20T10:57:03.923Z,17.54
2017-08-20T10:57:57.965Z,17.16
2017-08-20T10:58:53.067Z,17.30
2017-08-20T10:59:53.079Z,18.31
2017-08-20T11:00:47.109Z,18.28
2017-08-20T11:01:41.111Z,18.33
2017-08-20T11:02:29.198Z,18.44
2017-08-20T11:03:23.251Z,18.30
2017-08-20T11:04:12.265Z,18.89
2017-08-20T11:05:06.372Z,18.88
2017-08-20T11:06:01.484Z,19.33
2017-08-20T11:07:01.509Z,19.72
2017-08-20T11:07:50.531Z,20.06
2017-08-20T11:08:44.485Z,20.73
2017-08-20T11:09:38.604Z,21.06
2017-08-20T11:10:32.602Z,21.36
2017-08-20T11:11:26.747Z,22.45
2017-08-20T11:12:20.815Z,22.67
2017-08-20T11:13:14.788Z,23.12
2017-08-20T11:14:09.853Z,23.81
2017-08-20T11:14:58.901Z,23.88
2017-08-20T11:15:46.933Z,23.84
2017-08-20T11:16:41.028Z,24.29
2017-08-20T11:17:30.036Z,24.79
2017-08-20T11:18:18.160Z,24.99
2017-08-20T11:19:07.164Z,24.51
2017-08-20T11:20:02.304Z,24.44
2017-08-20T11:20:51.319Z,24.53
2017-08-20T11:21:46.443Z,24.85
2017-08-20T11:22:40.433Z,25.22
2017-08-20T11:23:34.431Z,24.54
2017-08-20T11:24:28.557Z,24.09
2017-08-20T11:25:17.635Z,23.27
2017-08-20T11:26:17.620Z,22.81
2017-08-20T11:27:12.675Z,22.87
2017-08-20T11:28:06.814Z,22.64
2017-08-20T11:29:00.790Z,21.96
2017-08-20T11:30:01.076Z,21.18
2017-08-20T11:30:54.944Z,20.47
2017-08-20T11:31:48.927Z,20.16
2017-08-20T11:32:48.981Z,20.12
2017-08-20T11:33:44.062Z,19.94
2017-08-20T11:34:38.127Z,19.55
2017-08-20T11:35:39.157Z,19.36
2017-08-20T11:36:33.251Z,19.34
2017-08-20T11:37:27.292Z,19.41
2017-08-20T11:38:22.414Z,19.43
2017-08-20T11:39:22.337Z,19.52
2017-08-20T11:40:16.475Z,19.57
2017-08-20T11:41:10.552Z,19.85
2017-08-20T11:42:05.623Z,20.50
2017-08-20T11:42:54.608Z,20.81
2017-08-20T11:43:54.635Z,20.90
2017-08-20T11:44:48.665Z,20.92
2017-08-20T11:45:48.814Z,20.90
2017-08-20T11:46:43.834Z,21.50
2017-08-20T11:47:31.898Z,22.00
2017-08-20T11:48:32.875Z,22.34